sensor_id;sensor_type;location;lat;lon;timestamp;temperature;humidity
41944;DHT22;27636;52.610;13.244;2022-12-29T00:02:08;7.60;99.90
41944;DHT22;27636;52.610;13.244;2022-12-29T00:07:12;7.60;99.90
41944;DHT22;27636;52.610;13.244;2022-12-29T00:12:15;7.70;99.90
41944;DHT22;27636;52.610;13.244;2022-12-29T00:17:20;7.80;99.90
41944;DHT22;27636;52.610;13.244;2022-12-29T00:22:23;7.80;99.90
41944;DHT22;27636;52.610;13.244;2022-12-29T00:27:45;7.80;99.90
41944;DHT22;27636;52.610;13.244;2022-12-29T00:33:11;7.80;99.90
41944;DHT22;27636;52.610;13.244;2022-12-29T00:38:37;7.90;99.90
41944;DHT22;27636;52.610;13.244;2022-12-29T00:44:01;8.00;99.90
41944;DHT22;27636;52.610;13.244;2022-12-29T00:49:14;7.90;99.90
41944;DHT22;27636;52.610;13.244;2022-12-29T00:54:34;7.90;99.90
41944;DHT22;27636;52.610;13.244;2022-12-29T00:59:39;7.90;99.90
41944;DHT22;27636;52.610;13.244;2022-12-29T01:04:44;7.80;99.90
41944;DHT22;27636;52.610;13.244;2022-12-29T01:09:47;7.80;99.90
41944;DHT22;27636;52.610;13.244;2022-12-29T01:15:11;7.90;99.90
41944;DHT22;27636;52.610;13.244;2022-12-29T01:20:15;7.90;99.90
41944;DHT22;27636;52.610;13.244;2022-12-29T01:25:20;7.90;99.90
41944;DHT22;27636;52.610;13.244;2022-12-29T01:30:23;8.00;99.90
41944;DHT22;27636;52.610;13.244;2022-12-29T01:35:29;8.00;99.90
41944;DHT22;27636;52.610;13.244;2022-12-29T01:40:33;8.00;99.90
41944;DHT22;27636;52.610;13.244;2022-12-29T01:45:44;8.00;99.90
41944;DHT22;27636;52.610;13.244;2022-12-29T01:50:52;8.00;99.90
41944;DHT22;27636;52.610;13.244;2022-12-29T01:55:59;7.90;99.90
41944;DHT22;27636;52.610;13.244;2022-12-29T02:01:04;7.90;99.90
41944;DHT22;27636;52.610;13.244;2022-12-29T02:06:12;7.80;99.90
41944;DHT22;27636;52.610;13.244;2022-12-29T02:11:19;7.90;99.90
41944;DHT22;27636;52.610;13.244;2022-12-29T02:16:35;7.90;99.90
41944;DHT22;27636;52.610;13.244;2022-12-29T02:21:55;7.90;99.90
41944;DHT22;27636;52.610;13.244;2022-12-29T02:27:15;7.90;99.90
41944;DHT22;27636;52.610;13.244;2022-12-29T02:32:32;7.90;99.90
41944;DHT22;27636;52.610;13.244;2022-12-29T02:37:42;7.90;99.90
41944;DHT22;27636;52.610;13.244;2022-12-29T02:42:49;8.00;99.90
41944;DHT22;27636;52.610;13.244;2022-12-29T02:47:58;8.10;99.90
41944;DHT22;27636;52.610;13.244;2022-12-29T02:53:06;8.20;99.90
41944;DHT22;27636;52.610;13.244;2022-12-29T02:58:16;8.30;99.90
41944;DHT22;27636;52.610;13.244;2022-12-29T03:03:28;8.30;99.90
41944;DHT22;27636;52.610;13.244;2022-12-29T03:08:44;8.30;99.90
41944;DHT22;27636;52.610;13.244;2022-12-29T03:13:52;8.50;99.90
41944;DHT22;27636;52.610;13.244;2022-12-29T03:19:24;8.50;99.90
41944;DHT22;27636;52.610;13.244;2022-12-29T03:24:31;8.70;99.90
41944;DHT22;27636;52.610;13.244;2022-12-29T03:29:38;8.70;99.90
41944;DHT22;27636;52.610;13.244;2022-12-29T03:34:44;8.90;99.90
41944;DHT22;27636;52.610;13.244;2022-12-29T03:39:48;8.90;99.90
41944;DHT22;27636;52.610;13.244;2022-12-29T03:44:54;9.10;99.90
41944;DHT22;27636;52.610;13.244;2022-12-29T03:50:00;9.10;99.90
41944;DHT22;27636;52.610;13.244;2022-12-29T03:55:08;9.10;99.90
41944;DHT22;27636;52.610;13.244;2022-12-29T04:00:13;9.20;99.90
41944;DHT22;27636;52.610;13.244;2022-12-29T04:05:25;9.40;99.90
41944;DHT22;27636;52.610;13.244;2022-12-29T04:10:30;9.40;99.90
41944;DHT22;27636;52.610;13.244;2022-12-29T04:15:36;9.50;99.90
41944;DHT22;27636;52.610;13.244;2022-12-29T04:20:40;9.50;99.90
41944;DHT22;27636;52.610;13.244;2022-12-29T04:26:04;9.50;99.90
41944;DHT22;27636;52.610;13.244;2022-12-29T04:31:13;9.50;99.90
41944;DHT22;27636;52.610;13.244;2022-12-29T04:36:20;9.60;99.90
41944;DHT22;27636;52.610;13.244;2022-12-29T04:41:32;9.50;99.90
41944;DHT22;27636;52.610;13.244;2022-12-29T04:46:37;9.50;99.90
41944;DHT22;27636;52.610;13.244;2022-12-29T04:51:46;9.40;99.90
41944;DHT22;27636;52.610;13.244;2022-12-29T04:56:51;9.40;99.90
41944;DHT22;27636;52.610;13.244;2022-12-29T05:01:54;9.40;99.90
41944;DHT22;27636;52.610;13.244;2022-12-29T05:06:59;9.60;99.90
41944;DHT22;27636;52.610;13.244;2022-12-29T05:12:03;9.70;99.90
41944;DHT22;27636;52.610;13.244;2022-12-29T05:17:08;9.80;99.90
41944;DHT22;27636;52.610;13.244;2022-12-29T05:22:13;9.80;99.90
41944;DHT22;27636;52.610;13.244;2022-12-29T05:27:19;10.00;99.90
41944;DHT22;27636;52.610;13.244;2022-12-29T05:32:44;10.10;99.90
41944;DHT22;27636;52.610;13.244;2022-12-29T05:37:48;10.10;99.90
41944;DHT22;27636;52.610;13.244;2022-12-29T05:42:52;10.10;99.90
41944;DHT22;27636;52.610;13.244;2022-12-29T05:48:16;10.20;99.90
41944;DHT22;27636;52.610;13.244;2022-12-29T05:53:29;10.10;99.90
41944;DHT22;27636;52.610;13.244;2022-12-29T05:58:33;10.30;99.90
41944;DHT22;27636;52.610;13.244;2022-12-29T06:03:36;10.10;99.90
41944;DHT22;27636;52.610;13.244;2022-12-29T06:08:48;10.10;99.90
41944;DHT22;27636;52.610;13.244;2022-12-29T06:13:51;10.00;99.90
41944;DHT22;27636;52.610;13.244;2022-12-29T06:18:54;10.20;99.90
41944;DHT22;27636;52.610;13.244;2022-12-29T06:23:59;10.30;99.90
41944;DHT22;27636;52.610;13.244;2022-12-29T06:29:03;10.30;99.90
41944;DHT22;27636;52.610;13.244;2022-12-29T06:34:08;10.40;99.90
41944;DHT22;27636;52.610;13.244;2022-12-29T06:39:13;10.30;99.90
41944;DHT22;27636;52.610;13.244;2022-12-29T06:44:24;10.50;99.90
41944;DHT22;27636;52.610;13.244;2022-12-29T06:49:36;10.50;99.90
41944;DHT22;27636;52.610;13.244;2022-12-29T06:54:41;10.60;99.90
41944;DHT22;27636;52.610;13.244;2022-12-29T06:59:44;10.50;99.90
41944;DHT22;27636;52.610;13.244;2022-12-29T07:04:47;10.30;99.90
41944;DHT22;27636;52.610;13.244;2022-12-29T07:09:52;10.40;99.90
41944;DHT22;27636;52.610;13.244;2022-12-29T07:14:55;10.40;99.90
41944;DHT22;27636;52.610;13.244;2022-12-29T07:19:58;10.30;99.90
41944;DHT22;27636;52.610;13.244;2022-12-29T07:25:03;10.50;99.90
41944;DHT22;27636;52.610;13.244;2022-12-29T07:30:07;10.50;99.90
41944;DHT22;27636;52.610;13.244;2022-12-29T07:35:10;10.30;99.90
41944;DHT22;27636;52.610;13.244;2022-12-29T07:40:15;10.40;99.90
41944;DHT22;27636;52.610;13.244;2022-12-29T07:45:18;10.30;99.90
41944;DHT22;27636;52.610;13.244;2022-12-29T07:50:38;10.40;99.90
41944;DHT22;27636;52.610;13.244;2022-12-29T07:55:43;10.40;99.90
41944;DHT22;27636;52.610;13.244;2022-12-29T08:00:46;10.60;99.90
41944;DHT22;27636;52.610;13.244;2022-12-29T08:05:49;10.60;99.90
41944;DHT22;27636;52.610;13.244;2022-12-29T08:10:53;10.70;99.90
41944;DHT22;27636;52.610;13.244;2022-12-29T08:15:57;10.60;99.90
41944;DHT22;27636;52.610;13.244;2022-12-29T08:21:02;10.70;99.90
41944;DHT22;27636;52.610;13.244;2022-12-29T08:26:07;10.70;99.90
41944;DHT22;27636;52.610;13.244;2022-12-29T08:31:10;10.70;99.90
41944;DHT22;27636;52.610;13.244;2022-12-29T08:36:14;10.50;99.90
41944;DHT22;27636;52.610;13.244;2022-12-29T08:41:20;10.50;99.90
41944;DHT22;27636;52.610;13.244;2022-12-29T08:46:23;10.40;99.90
41944;DHT22;27636;52.610;13.244;2022-12-29T08:51:27;10.40;99.90
41944;DHT22;27636;52.610;13.244;2022-12-29T08:56:31;10.60;99.90
41944;DHT22;27636;52.610;13.244;2022-12-29T09:01:35;11.00;99.90
41944;DHT22;27636;52.610;13.244;2022-12-29T09:06:39;11.30;99.90
41944;DHT22;27636;52.610;13.244;2022-12-29T09:11:44;11.30;99.90
41944;DHT22;27636;52.610;13.244;2022-12-29T09:16:50;11.30;99.90
41944;DHT22;27636;52.610;13.244;2022-12-29T09:22:12;11.40;99.90
41944;DHT22;27636;52.610;13.244;2022-12-29T09:27:16;11.80;99.90
41944;DHT22;27636;52.610;13.244;2022-12-29T09:32:20;12.50;99.90
41944;DHT22;27636;52.610;13.244;2022-12-29T09:37:25;13.00;99.90
41944;DHT22;27636;52.610;13.244;2022-12-29T09:42:35;13.70;99.90
41944;DHT22;27636;52.610;13.244;2022-12-29T09:47:43;14.20;99.90
41944;DHT22;27636;52.610;13.244;2022-12-29T09:52:49;13.20;99.90
41944;DHT22;27636;52.610;13.244;2022-12-29T09:57:57;12.70;99.90
41944;DHT22;27636;52.610;13.244;2022-12-29T10:03:09;12.70;99.90
41944;DHT22;27636;52.610;13.244;2022-12-29T10:08:28;12.70;99.90
41944;DHT22;27636;52.610;13.244;2022-12-29T10:13:43;12.60;99.90
41944;DHT22;27636;52.610;13.244;2022-12-29T10:19:05;12.60;99.90
41944;DHT22;27636;52.610;13.244;2022-12-29T10:24:13;12.60;99.90
41944;DHT22;27636;52.610;13.244;2022-12-29T10:29:19;12.90;99.90
41944;DHT22;27636;52.610;13.244;2022-12-29T10:34:26;13.20;99.90
41944;DHT22;27636;52.610;13.244;2022-12-29T10:39:32;13.10;99.90
41944;DHT22;27636;52.610;13.244;2022-12-29T10:44:38;13.00;99.90
41944;DHT22;27636;52.610;13.244;2022-12-29T10:49:45;13.20;99.90
41944;DHT22;27636;52.610;13.244;2022-12-29T10:54:51;13.30;99.90
41944;DHT22;27636;52.610;13.244;2022-12-29T10:59:58;13.30;99.90
41944;DHT22;27636;52.610;13.244;2022-12-29T11:05:05;13.40;99.90
41944;DHT22;27636;52.610;13.244;2022-12-29T11:10:18;13.30;99.90
41944;DHT22;27636;52.610;13.244;2022-12-29T11:15:23;13.20;99.90
41944;DHT22;27636;52.610;13.244;2022-12-29T11:20:30;13.20;99.90
41944;DHT22;27636;52.610;13.244;2022-12-29T11:25:34;13.20;99.90
41944;DHT22;27636;52.610;13.244;2022-12-29T11:30:38;13.30;99.90
41944;DHT22;27636;52.610;13.244;2022-12-29T11:35:43;13.20;99.90
41944;DHT22;27636;52.610;13.244;2022-12-29T11:40:47;13.00;99.90
41944;DHT22;27636;52.610;13.244;2022-12-29T11:45:52;12.50;99.90
41944;DHT22;27636;52.610;13.244;2022-12-29T11:50:58;12.00;99.90
41944;DHT22;27636;52.610;13.244;2022-12-29T11:56:08;11.60;99.90
41944;DHT22;27636;52.610;13.244;2022-12-29T12:01:16;11.30;99.90
41944;DHT22;27636;52.610;13.244;2022-12-29T12:06:22;11.10;99.90
41944;DHT22;27636;52.610;13.244;2022-12-29T12:11:30;11.10;99.90
41944;DHT22;27636;52.610;13.244;2022-12-29T12:16:45;11.10;99.90
41944;DHT22;27636;52.610;13.244;2022-12-29T12:21:53;11.10;99.90
41944;DHT22;27636;52.610;13.244;2022-12-29T12:27:01;10.90;99.90
41944;DHT22;27636;52.610;13.244;2022-12-29T12:32:12;10.80;99.90
41944;DHT22;27636;52.610;13.244;2022-12-29T12:43:03;10.70;99.90
41944;DHT22;27636;52.610;13.244;2022-12-29T12:48:23;10.70;99.90
41944;DHT22;27636;52.610;13.244;2022-12-29T12:53:37;10.60;99.90
41944;DHT22;27636;52.610;13.244;2022-12-29T12:58:48;10.50;99.90
41944;DHT22;27636;52.610;13.244;2022-12-29T13:04:08;10.50;99.90
41944;DHT22;27636;52.610;13.244;2022-12-29T13:09:29;10.50;99.90
41944;DHT22;27636;52.610;13.244;2022-12-29T13:14:45;10.50;99.90
41944;DHT22;27636;52.610;13.244;2022-12-29T13:19:57;10.40;99.90
41944;DHT22;27636;52.610;13.244;2022-12-29T13:25:18;10.40;99.90
41944;DHT22;27636;52.610;13.244;2022-12-29T13:30:26;10.30;99.90
41944;DHT22;27636;52.610;13.244;2022-12-29T13:35:54;10.60;99.90
41944;DHT22;27636;52.610;13.244;2022-12-29T13:41:01;10.50;99.90
41944;DHT22;27636;52.610;13.244;2022-12-29T13:46:09;10.50;99.90
41944;DHT22;27636;52.610;13.244;2022-12-29T13:51:15;10.50;99.90
41944;DHT22;27636;52.610;13.244;2022-12-29T13:56:31;10.40;99.90
41944;DHT22;27636;52.610;13.244;2022-12-29T14:01:39;10.40;99.90
41944;DHT22;27636;52.610;13.244;2022-12-29T14:06:51;10.40;99.90
41944;DHT22;27636;52.610;13.244;2022-12-29T14:12:01;10.20;99.90
41944;DHT22;27636;52.610;13.244;2022-12-29T14:17:21;10.20;99.90
41944;DHT22;27636;52.610;13.244;2022-12-29T14:22:27;10.10;99.90
41944;DHT22;27636;52.610;13.244;2022-12-29T14:27:53;10.00;99.90
41944;DHT22;27636;52.610;13.244;2022-12-29T14:33:03;10.00;99.90
41944;DHT22;27636;52.610;13.244;2022-12-29T14:38:37;10.00;99.90
41944;DHT22;27636;52.610;13.244;2022-12-29T14:43:58;10.20;99.90
41944;DHT22;27636;52.610;13.244;2022-12-29T14:49:03;10.10;99.90
41944;DHT22;27636;52.610;13.244;2022-12-29T14:54:41;10.20;99.90
41944;DHT22;27636;52.610;13.244;2022-12-29T14:59:45;10.20;99.90
41944;DHT22;27636;52.610;13.244;2022-12-29T15:04:49;10.30;99.90
41944;DHT22;27636;52.610;13.244;2022-12-29T15:09:59;10.00;99.90
41944;DHT22;27636;52.610;13.244;2022-12-29T15:15:18;9.50;99.90
41944;DHT22;27636;52.610;13.244;2022-12-29T15:20:24;9.10;99.90
41944;DHT22;27636;52.610;13.244;2022-12-29T15:25:30;8.90;99.90
41944;DHT22;27636;52.610;13.244;2022-12-29T15:53:15;8.00;99.90
41944;DHT22;27636;52.610;13.244;2022-12-29T15:58:21;8.00;99.90
41944;DHT22;27636;52.610;13.244;2022-12-29T16:03:27;8.10;99.90
41944;DHT22;27636;52.610;13.244;2022-12-29T16:08:36;8.40;99.90
41944;DHT22;27636;52.610;13.244;2022-12-29T16:13:40;8.70;99.90
41944;DHT22;27636;52.610;13.244;2022-12-29T16:18:44;8.80;99.90
41944;DHT22;27636;52.610;13.244;2022-12-29T16:23:54;8.90;99.90
41944;DHT22;27636;52.610;13.244;2022-12-29T16:29:00;8.80;99.90
41944;DHT22;27636;52.610;13.244;2022-12-29T16:34:11;8.50;99.90
41944;DHT22;27636;52.610;13.244;2022-12-29T16:39:24;8.30;99.90
41944;DHT22;27636;52.610;13.244;2022-12-29T16:44:30;8.20;99.90
41944;DHT22;27636;52.610;13.244;2022-12-29T16:49:34;8.30;99.90
41944;DHT22;27636;52.610;13.244;2022-12-29T16:54:40;8.30;99.90
41944;DHT22;27636;52.610;13.244;2022-12-29T16:59:44;8.30;99.90
41944;DHT22;27636;52.610;13.244;2022-12-29T17:04:47;8.50;99.90
41944;DHT22;27636;52.610;13.244;2022-12-29T17:09:54;8.60;99.90
41944;DHT22;27636;52.610;13.244;2022-12-29T17:14:58;8.70;99.90
41944;DHT22;27636;52.610;13.244;2022-12-29T17:20:03;8.80;99.90
41944;DHT22;27636;52.610;13.244;2022-12-29T17:25:12;8.90;99.90
41944;DHT22;27636;52.610;13.244;2022-12-29T17:30:17;8.90;99.90
41944;DHT22;27636;52.610;13.244;2022-12-29T17:35:21;9.10;99.90
41944;DHT22;27636;52.610;13.244;2022-12-29T17:40:26;9.30;99.90
41944;DHT22;27636;52.610;13.244;2022-12-29T17:45:32;9.30;99.90
41944;DHT22;27636;52.610;13.244;2022-12-29T17:50:35;9.40;99.90
41944;DHT22;27636;52.610;13.244;2022-12-29T17:55:40;9.30;99.90
41944;DHT22;27636;52.610;13.244;2022-12-29T18:00:44;9.30;99.90
41944;DHT22;27636;52.610;13.244;2022-12-29T18:05:47;9.20;99.90
41944;DHT22;27636;52.610;13.244;2022-12-29T18:10:54;9.30;99.90
41944;DHT22;27636;52.610;13.244;2022-12-29T18:15:58;9.30;99.90
41944;DHT22;27636;52.610;13.244;2022-12-29T18:21:01;9.30;99.90
41944;DHT22;27636;52.610;13.244;2022-12-29T18:26:12;9.30;99.90
41944;DHT22;27636;52.610;13.244;2022-12-29T18:31:19;9.00;99.90
41944;DHT22;27636;52.610;13.244;2022-12-29T18:36:24;9.00;99.90
41944;DHT22;27636;52.610;13.244;2022-12-29T18:41:29;8.80;99.90
41944;DHT22;27636;52.610;13.244;2022-12-29T18:46:32;8.60;99.90
41944;DHT22;27636;52.610;13.244;2022-12-29T18:51:35;8.70;99.90
41944;DHT22;27636;52.610;13.244;2022-12-29T18:56:40;8.70;99.90
41944;DHT22;27636;52.610;13.244;2022-12-29T19:01:43;8.80;99.90
41944;DHT22;27636;52.610;13.244;2022-12-29T19:06:47;8.90;99.90
41944;DHT22;27636;52.610;13.244;2022-12-29T19:11:51;8.90;99.90
41944;DHT22;27636;52.610;13.244;2022-12-29T19:16:55;9.00;99.90
41944;DHT22;27636;52.610;13.244;2022-12-29T19:21:58;9.10;99.90
41944;DHT22;27636;52.610;13.244;2022-12-29T19:27:02;9.00;99.90
41944;DHT22;27636;52.610;13.244;2022-12-29T19:32:06;8.90;99.90
41944;DHT22;27636;52.610;13.244;2022-12-29T19:37:09;8.70;99.90
41944;DHT22;27636;52.610;13.244;2022-12-29T19:42:14;8.90;99.90
41944;DHT22;27636;52.610;13.244;2022-12-29T19:47:17;8.90;99.90
41944;DHT22;27636;52.610;13.244;2022-12-29T19:52:24;9.00;99.90
41944;DHT22;27636;52.610;13.244;2022-12-29T19:57:30;9.00;99.90
41944;DHT22;27636;52.610;13.244;2022-12-29T20:02:33;9.20;99.90
41944;DHT22;27636;52.610;13.244;2022-12-29T20:07:37;9.20;99.90
41944;DHT22;27636;52.610;13.244;2022-12-29T20:12:42;9.20;99.90
41944;DHT22;27636;52.610;13.244;2022-12-29T20:17:45;9.10;99.90
41944;DHT22;27636;52.610;13.244;2022-12-29T20:23:08;9.00;99.90
41944;DHT22;27636;52.610;13.244;2022-12-29T20:28:13;9.00;99.90
41944;DHT22;27636;52.610;13.244;2022-12-29T20:33:18;8.90;99.90
41944;DHT22;27636;52.610;13.244;2022-12-29T20:38:21;8.90;99.90
41944;DHT22;27636;52.610;13.244;2022-12-29T20:43:25;9.00;99.90
41944;DHT22;27636;52.610;13.244;2022-12-29T20:48:29;8.80;99.90
41944;DHT22;27636;52.610;13.244;2022-12-29T20:53:32;8.80;99.90
41944;DHT22;27636;52.610;13.244;2022-12-29T20:58:37;8.90;99.90
41944;DHT22;27636;52.610;13.244;2022-12-29T21:04:01;9.00;99.90
41944;DHT22;27636;52.610;13.244;2022-12-29T21:09:05;9.00;99.90
41944;DHT22;27636;52.610;13.244;2022-12-29T21:14:09;9.30;99.90
41944;DHT22;27636;52.610;13.244;2022-12-29T21:19:13;9.30;99.90
41944;DHT22;27636;52.610;13.244;2022-12-29T21:24:17;9.30;99.90
41944;DHT22;27636;52.610;13.244;2022-12-29T21:29:23;9.40;99.90
41944;DHT22;27636;52.610;13.244;2022-12-29T21:34:26;9.40;99.90
41944;DHT22;27636;52.610;13.244;2022-12-29T21:39:29;9.50;99.90
41944;DHT22;27636;52.610;13.244;2022-12-29T21:44:34;9.20;99.90
41944;DHT22;27636;52.610;13.244;2022-12-29T21:49:55;9.00;99.90
41944;DHT22;27636;52.610;13.244;2022-12-29T21:54:59;8.90;99.90
41944;DHT22;27636;52.610;13.244;2022-12-29T22:00:04;8.70;99.90
41944;DHT22;27636;52.610;13.244;2022-12-29T22:05:26;8.60;99.90
41944;DHT22;27636;52.610;13.244;2022-12-29T22:10:49;8.60;99.90
41944;DHT22;27636;52.610;13.244;2022-12-29T22:16:12;8.60;99.90
41944;DHT22;27636;52.610;13.244;2022-12-29T22:21:17;8.70;99.90
41944;DHT22;27636;52.610;13.244;2022-12-29T22:26:21;8.90;99.90
41944;DHT22;27636;52.610;13.244;2022-12-29T22:31:27;9.10;99.90
41944;DHT22;27636;52.610;13.244;2022-12-29T22:36:31;9.10;99.90
41944;DHT22;27636;52.610;13.244;2022-12-29T22:41:35;9.10;99.90
41944;DHT22;27636;52.610;13.244;2022-12-29T22:46:40;9.20;99.90
41944;DHT22;27636;52.610;13.244;2022-12-29T22:51:43;9.10;99.90
41944;DHT22;27636;52.610;13.244;2022-12-29T22:56:47;9.10;99.90
41944;DHT22;27636;52.610;13.244;2022-12-29T23:01:51;9.00;99.90
41944;DHT22;27636;52.610;13.244;2022-12-29T23:06:55;8.90;99.90
41944;DHT22;27636;52.610;13.244;2022-12-29T23:11:58;9.00;99.90
41944;DHT22;27636;52.610;13.244;2022-12-29T23:17:02;9.10;99.90
41944;DHT22;27636;52.610;13.244;2022-12-29T23:22:05;9.10;99.90
41944;DHT22;27636;52.610;13.244;2022-12-29T23:27:09;9.00;99.90
41944;DHT22;27636;52.610;13.244;2022-12-29T23:32:14;8.90;99.90
41944;DHT22;27636;52.610;13.244;2022-12-29T23:37:17;8.80;99.90
41944;DHT22;27636;52.610;13.244;2022-12-29T23:42:20;8.80;99.90
41944;DHT22;27636;52.610;13.244;2022-12-29T23:47:25;8.70;99.90
41944;DHT22;27636;52.610;13.244;2022-12-29T23:52:28;8.70;99.90
41944;DHT22;27636;52.610;13.244;2022-12-29T23:57:31;8.40;99.90
